Weatherby Lake, Missouri
Current Conditions -  °F | °C
As of 10:12 AM on Thursday 18 Dec 2014 (Local Time) from KMCI Reporting Station
Light Snow Light Snow  
Wind Chill: 22°   Ceiling: 900
Heat Index: 30°   Visibility: 3mi
Dew Point: 27°   Wind: 8mph
Humidity: 88%   Direction: 90°E
Pressure: 30.24"   Gusts: NA
Location:  39.2806°N, 94.7299°W
Report Text: KMCI 181612Z 09007KT 3SM -SN BR BKN009 OVC032 M01/M03 A3024 RMK AO2 P0000 T10111028
Loading
Personal Weather Stations






























Interactive Weather Map New forecast layout! Learn more

10-Day Weather Forecast

Advertisements
Track Severe Weather on mobile